sensor_id;sensor_type;location;lat;lon;timestamp;temperature;humidity
3715;DHT22;1873;49.988;8.674;2022-11-21T00:01:29;5.60;99.90
3715;DHT22;1873;49.988;8.674;2022-11-21T00:03:57;5.60;99.90
3715;DHT22;1873;49.988;8.674;2022-11-21T00:06:25;5.60;99.90
3715;DHT22;1873;49.988;8.674;2022-11-21T00:08:54;5.60;99.90
3715;DHT22;1873;49.988;8.674;2022-11-21T00:11:25;5.60;99.90
3715;DHT22;1873;49.988;8.674;2022-11-21T00:13:53;5.60;99.90
3715;DHT22;1873;49.988;8.674;2022-11-21T00:16:23;5.60;99.90
3715;DHT22;1873;49.988;8.674;2022-11-21T00:18:52;5.60;99.90
3715;DHT22;1873;49.988;8.674;2022-11-21T00:21:20;5.60;99.90
3715;DHT22;1873;49.988;8.674;2022-11-21T00:23:51;5.60;99.90
3715;DHT22;1873;49.988;8.674;2022-11-21T00:26:20;5.60;99.90
3715;DHT22;1873;49.988;8.674;2022-11-21T00:28:48;5.60;99.90
3715;DHT22;1873;49.988;8.674;2022-11-21T00:31:20;5.60;99.90
3715;DHT22;1873;49.988;8.674;2022-11-21T00:33:51;5.60;99.90
3715;DHT22;1873;49.988;8.674;2022-11-21T00:36:20;5.60;99.90
3715;DHT22;1873;49.988;8.674;2022-11-21T00:38:48;5.60;99.90
3715;DHT22;1873;49.988;8.674;2022-11-21T00:41:17;5.60;99.90
3715;DHT22;1873;49.988;8.674;2022-11-21T00:43:45;5.60;99.90
3715;DHT22;1873;49.988;8.674;2022-11-21T00:46:14;5.60;99.90
3715;DHT22;1873;49.988;8.674;2022-11-21T00:48:43;5.60;99.90
3715;DHT22;1873;49.988;8.674;2022-11-21T00:51:13;5.60;99.90
3715;DHT22;1873;49.988;8.674;2022-11-21T00:53:43;5.60;99.90
3715;DHT22;1873;49.988;8.674;2022-11-21T00:56:13;5.60;99.90
3715;DHT22;1873;49.988;8.674;2022-11-21T00:58:42;5.60;99.90
3715;DHT22;1873;49.988;8.674;2022-11-21T01:01:12;5.60;99.90
3715;DHT22;1873;49.988;8.674;2022-11-21T01:03:41;5.60;99.90
3715;DHT22;1873;49.988;8.674;2022-11-21T01:06:14;5.60;99.90
3715;DHT22;1873;49.988;8.674;2022-11-21T01:08:44;5.70;99.90
3715;DHT22;1873;49.988;8.674;2022-11-21T01:11:14;5.70;99.90
3715;DHT22;1873;49.988;8.674;2022-11-21T01:13:44;5.70;99.90
3715;DHT22;1873;49.988;8.674;2022-11-21T01:16:14;5.70;99.90
3715;DHT22;1873;49.988;8.674;2022-11-21T01:18:43;5.80;99.90
3715;DHT22;1873;49.988;8.674;2022-11-21T01:21:15;5.80;99.90
3715;DHT22;1873;49.988;8.674;2022-11-21T01:23:43;5.80;99.90
3715;DHT22;1873;49.988;8.674;2022-11-21T01:26:14;5.80;99.90
3715;DHT22;1873;49.988;8.674;2022-11-21T01:28:43;5.80;99.90
3715;DHT22;1873;49.988;8.674;2022-11-21T01:31:13;5.80;99.90
3715;DHT22;1873;49.988;8.674;2022-11-21T01:33:42;5.80;99.90
3715;DHT22;1873;49.988;8.674;2022-11-21T01:36:14;5.80;99.90
3715;DHT22;1873;49.988;8.674;2022-11-21T01:38:48;5.90;99.90
3715;DHT22;1873;49.988;8.674;2022-11-21T01:41:19;5.90;99.90
3715;DHT22;1873;49.988;8.674;2022-11-21T01:43:48;5.90;99.90
3715;DHT22;1873;49.988;8.674;2022-11-21T01:46:18;5.90;99.90
3715;DHT22;1873;49.988;8.674;2022-11-21T01:48:51;5.90;99.90
3715;DHT22;1873;49.988;8.674;2022-11-21T01:51:26;5.90;99.90
3715;DHT22;1873;49.988;8.674;2022-11-21T01:53:58;5.90;99.90
3715;DHT22;1873;49.988;8.674;2022-11-21T01:56:29;5.90;99.90
3715;DHT22;1873;49.988;8.674;2022-11-21T01:59:02;5.90;99.90
3715;DHT22;1873;49.988;8.674;2022-11-21T02:01:33;5.90;99.90
3715;DHT22;1873;49.988;8.674;2022-11-21T02:04:05;5.90;99.90
3715;DHT22;1873;49.988;8.674;2022-11-21T02:06:36;5.90;99.90
3715;DHT22;1873;49.988;8.674;2022-11-21T02:09:05;5.90;99.90
3715;DHT22;1873;49.988;8.674;2022-11-21T02:11:37;5.90;99.90
3715;DHT22;1873;49.988;8.674;2022-11-21T02:14:08;5.90;99.90
3715;DHT22;1873;49.988;8.674;2022-11-21T02:16:36;5.90;99.90
3715;DHT22;1873;49.988;8.674;2022-11-21T02:19:08;5.90;99.90
3715;DHT22;1873;49.988;8.674;2022-11-21T02:21:43;5.90;99.90
3715;DHT22;1873;49.988;8.674;2022-11-21T02:24:22;5.90;99.90
3715;DHT22;1873;49.988;8.674;2022-11-21T02:26:54;5.90;99.90
3715;DHT22;1873;49.988;8.674;2022-11-21T02:29:23;5.90;99.90
3715;DHT22;1873;49.988;8.674;2022-11-21T02:31:58;6.00;99.90
3715;DHT22;1873;49.988;8.674;2022-11-21T02:34:27;6.00;99.90
3715;DHT22;1873;49.988;8.674;2022-11-21T02:36:56;6.00;99.90
3715;DHT22;1873;49.988;8.674;2022-11-21T02:39:27;6.00;99.90
3715;DHT22;1873;49.988;8.674;2022-11-21T02:42:04;6.00;99.90
3715;DHT22;1873;49.988;8.674;2022-11-21T02:44:41;6.00;99.90
3715;DHT22;1873;49.988;8.674;2022-11-21T02:47:10;6.00;99.90
3715;DHT22;1873;49.988;8.674;2022-11-21T02:49:44;6.00;99.90
3715;DHT22;1873;49.988;8.674;2022-11-21T02:52:14;6.00;99.90
3715;DHT22;1873;49.988;8.674;2022-11-21T02:54:43;6.00;99.90
3715;DHT22;1873;49.988;8.674;2022-11-21T02:57:13;6.00;99.90
3715;DHT22;1873;49.988;8.674;2022-11-21T02:59:41;6.00;99.90
3715;DHT22;1873;49.988;8.674;2022-11-21T03:02:09;5.90;99.90
3715;DHT22;1873;49.988;8.674;2022-11-21T03:04:37;5.90;99.90
3715;DHT22;1873;49.988;8.674;2022-11-21T03:07:05;5.90;99.90
3715;DHT22;1873;49.988;8.674;2022-11-21T03:09:34;5.90;99.90
3715;DHT22;1873;49.988;8.674;2022-11-21T03:12:05;5.80;99.90
3715;DHT22;1873;49.988;8.674;2022-11-21T03:14:36;5.80;99.90
3715;DHT22;1873;49.988;8.674;2022-11-21T03:17:05;5.80;99.90
3715;DHT22;1873;49.988;8.674;2022-11-21T03:19:33;5.80;99.90
3715;DHT22;1873;49.988;8.674;2022-11-21T03:22:02;5.80;99.90
3715;DHT22;1873;49.988;8.674;2022-11-21T03:24:30;5.80;99.90
3715;DHT22;1873;49.988;8.674;2022-11-21T03:26:58;5.80;99.90
3715;DHT22;1873;49.988;8.674;2022-11-21T03:29:27;5.80;99.90
3715;DHT22;1873;49.988;8.674;2022-11-21T03:31:57;5.80;99.90
3715;DHT22;1873;49.988;8.674;2022-11-21T03:34:25;5.70;99.90
3715;DHT22;1873;49.988;8.674;2022-11-21T03:36:54;5.70;99.90
3715;DHT22;1873;49.988;8.674;2022-11-21T03:39:23;5.70;99.90
3715;DHT22;1873;49.988;8.674;2022-11-21T03:41:51;5.70;99.90
3715;DHT22;1873;49.988;8.674;2022-11-21T03:44:20;5.80;99.90
3715;DHT22;1873;49.988;8.674;2022-11-21T03:46:50;5.70;99.90
3715;DHT22;1873;49.988;8.674;2022-11-21T03:49:20;5.70;99.90
3715;DHT22;1873;49.988;8.674;2022-11-21T03:51:48;5.70;99.90
3715;DHT22;1873;49.988;8.674;2022-11-21T03:54:17;5.60;99.90
3715;DHT22;1873;49.988;8.674;2022-11-21T03:56:45;5.60;99.90
3715;DHT22;1873;49.988;8.674;2022-11-21T03:59:14;5.70;99.90
3715;DHT22;1873;49.988;8.674;2022-11-21T04:01:43;5.70;99.90
3715;DHT22;1873;49.988;8.674;2022-11-21T04:04:12;5.70;99.90
3715;DHT22;1873;49.988;8.674;2022-11-21T04:06:42;5.70;99.90
3715;DHT22;1873;49.988;8.674;2022-11-21T04:09:11;5.70;99.90
3715;DHT22;1873;49.988;8.674;2022-11-21T04:11:39;5.70;99.90
3715;DHT22;1873;49.988;8.674;2022-11-21T04:14:07;5.70;99.90
3715;DHT22;1873;49.988;8.674;2022-11-21T04:16:36;5.70;99.90
3715;DHT22;1873;49.988;8.674;2022-11-21T04:19:04;5.70;99.90
3715;DHT22;1873;49.988;8.674;2022-11-21T04:21:33;5.70;99.90
3715;DHT22;1873;49.988;8.674;2022-11-21T04:24:03;5.70;99.90
3715;DHT22;1873;49.988;8.674;2022-11-21T04:26:31;5.70;99.90
3715;DHT22;1873;49.988;8.674;2022-11-21T04:29:00;5.80;99.90
3715;DHT22;1873;49.988;8.674;2022-11-21T04:31:28;5.80;99.90
3715;DHT22;1873;49.988;8.674;2022-11-21T04:33:57;5.80;99.90
3715;DHT22;1873;49.988;8.674;2022-11-21T04:36:26;5.80;99.90
3715;DHT22;1873;49.988;8.674;2022-11-21T04:38:55;5.80;99.90
3715;DHT22;1873;49.988;8.674;2022-11-21T04:41:25;5.80;99.90
3715;DHT22;1873;49.988;8.674;2022-11-21T04:43:53;5.80;99.90
3715;DHT22;1873;49.988;8.674;2022-11-21T04:46:24;5.90;99.90
3715;DHT22;1873;49.988;8.674;2022-11-21T04:48:53;5.80;99.90
3715;DHT22;1873;49.988;8.674;2022-11-21T04:51:21;5.80;99.90
3715;DHT22;1873;49.988;8.674;2022-11-21T04:53:50;5.80;99.90
3715;DHT22;1873;49.988;8.674;2022-11-21T04:56:18;5.90;99.90
3715;DHT22;1873;49.988;8.674;2022-11-21T04:58:50;5.90;99.90
3715;DHT22;1873;49.988;8.674;2022-11-21T05:01:20;5.80;99.90
3715;DHT22;1873;49.988;8.674;2022-11-21T05:03:48;5.90;99.90
3715;DHT22;1873;49.988;8.674;2022-11-21T05:06:19;5.90;99.90
3715;DHT22;1873;49.988;8.674;2022-11-21T05:08:54;5.90;99.90
3715;DHT22;1873;49.988;8.674;2022-11-21T05:11:23;5.90;99.90
3715;DHT22;1873;49.988;8.674;2022-11-21T05:14:10;5.90;99.90
3715;DHT22;1873;49.988;8.674;2022-11-21T05:16:38;5.90;99.90
3715;DHT22;1873;49.988;8.674;2022-11-21T05:19:08;5.90;99.90
3715;DHT22;1873;49.988;8.674;2022-11-21T05:21:36;5.90;99.90
3715;DHT22;1873;49.988;8.674;2022-11-21T05:24:05;5.80;99.90
3715;DHT22;1873;49.988;8.674;2022-11-21T05:26:34;5.80;99.90
3715;DHT22;1873;49.988;8.674;2022-11-21T05:29:03;5.80;99.90
3715;DHT22;1873;49.988;8.674;2022-11-21T05:31:34;5.80;99.90
3715;DHT22;1873;49.988;8.674;2022-11-21T05:34:05;5.80;99.90
3715;DHT22;1873;49.988;8.674;2022-11-21T05:36:34;5.90;99.90
3715;DHT22;1873;49.988;8.674;2022-11-21T05:39:02;5.90;99.90
3715;DHT22;1873;49.988;8.674;2022-11-21T05:41:31;5.90;99.90
3715;DHT22;1873;49.988;8.674;2022-11-21T05:43:59;5.90;99.90
3715;DHT22;1873;49.988;8.674;2022-11-21T05:46:26;5.90;99.90
3715;DHT22;1873;49.988;8.674;2022-11-21T05:48:57;5.80;99.90
3715;DHT22;1873;49.988;8.674;2022-11-21T05:51:25;5.80;99.90
3715;DHT22;1873;49.988;8.674;2022-11-21T05:53:54;5.80;99.90
3715;DHT22;1873;49.988;8.674;2022-11-21T05:56:23;5.80;99.90
3715;DHT22;1873;49.988;8.674;2022-11-21T05:58:53;5.70;99.90
3715;DHT22;1873;49.988;8.674;2022-11-21T06:01:22;5.70;99.90
3715;DHT22;1873;49.988;8.674;2022-11-21T06:04:06;5.70;99.90
3715;DHT22;1873;49.988;8.674;2022-11-21T06:06:35;5.70;99.90
3715;DHT22;1873;49.988;8.674;2022-11-21T06:09:04;5.70;99.90
3715;DHT22;1873;49.988;8.674;2022-11-21T06:11:33;5.70;99.90
3715;DHT22;1873;49.988;8.674;2022-11-21T06:14:01;5.70;99.90
3715;DHT22;1873;49.988;8.674;2022-11-21T06:16:29;5.60;99.90
3715;DHT22;1873;49.988;8.674;2022-11-21T06:18:58;5.60;99.90
3715;DHT22;1873;49.988;8.674;2022-11-21T06:21:28;5.60;99.90
3715;DHT22;1873;49.988;8.674;2022-11-21T06:23:57;5.60;99.90
3715;DHT22;1873;49.988;8.674;2022-11-21T06:26:26;5.50;99.90
3715;DHT22;1873;49.988;8.674;2022-11-21T06:28:55;5.50;99.90
3715;DHT22;1873;49.988;8.674;2022-11-21T06:31:25;5.50;99.90
3715;DHT22;1873;49.988;8.674;2022-11-21T06:33:56;5.50;99.90
3715;DHT22;1873;49.988;8.674;2022-11-21T06:36:25;5.50;99.90
3715;DHT22;1873;49.988;8.674;2022-11-21T06:38:55;5.50;99.90
3715;DHT22;1873;49.988;8.674;2022-11-21T06:41:25;5.50;99.90
3715;DHT22;1873;49.988;8.674;2022-11-21T06:43:57;5.50;99.90
3715;DHT22;1873;49.988;8.674;2022-11-21T06:46:27;5.50;99.90
3715;DHT22;1873;49.988;8.674;2022-11-21T06:48:56;5.50;99.90
3715;DHT22;1873;49.988;8.674;2022-11-21T06:51:24;5.50;99.90
3715;DHT22;1873;49.988;8.674;2022-11-21T06:53:57;5.50;99.90
3715;DHT22;1873;49.988;8.674;2022-11-21T06:56:27;5.50;99.90
3715;DHT22;1873;49.988;8.674;2022-11-21T06:58:56;5.50;99.90
3715;DHT22;1873;49.988;8.674;2022-11-21T07:01:25;5.50;99.90
3715;DHT22;1873;49.988;8.674;2022-11-21T07:03:53;5.50;99.90
3715;DHT22;1873;49.988;8.674;2022-11-21T07:06:22;5.60;99.90
3715;DHT22;1873;49.988;8.674;2022-11-21T07:08:52;5.60;99.90
3715;DHT22;1873;49.988;8.674;2022-11-21T07:11:43;5.60;99.90
3715;DHT22;1873;49.988;8.674;2022-11-21T07:14:11;5.70;99.90
3715;DHT22;1873;49.988;8.674;2022-11-21T07:16:38;5.60;99.90
3715;DHT22;1873;49.988;8.674;2022-11-21T07:19:07;5.70;99.90
3715;DHT22;1873;49.988;8.674;2022-11-21T07:21:35;5.70;99.90
3715;DHT22;1873;49.988;8.674;2022-11-21T07:24:04;5.70;99.90
3715;DHT22;1873;49.988;8.674;2022-11-21T07:26:33;5.70;99.90
3715;DHT22;1873;49.988;8.674;2022-11-21T07:29:03;5.70;99.90
3715;DHT22;1873;49.988;8.674;2022-11-21T07:31:31;5.80;99.90
3715;DHT22;1873;49.988;8.674;2022-11-21T07:34:00;5.70;99.90
3715;DHT22;1873;49.988;8.674;2022-11-21T07:36:28;5.70;99.90
3715;DHT22;1873;49.988;8.674;2022-11-21T07:38:58;5.70;99.90
3715;DHT22;1873;49.988;8.674;2022-11-21T07:41:26;5.70;99.90
3715;DHT22;1873;49.988;8.674;2022-11-21T07:43:55;5.80;99.90
3715;DHT22;1873;49.988;8.674;2022-11-21T07:46:25;5.80;99.90
3715;DHT22;1873;49.988;8.674;2022-11-21T07:48:53;5.90;99.90
3715;DHT22;1873;49.988;8.674;2022-11-21T07:51:28;5.90;99.90
3715;DHT22;1873;49.988;8.674;2022-11-21T07:53:57;5.90;99.90
3715;DHT22;1873;49.988;8.674;2022-11-21T07:56:26;5.90;99.90
3715;DHT22;1873;49.988;8.674;2022-11-21T07:58:54;5.90;99.90
3715;DHT22;1873;49.988;8.674;2022-11-21T08:01:22;5.90;99.90
3715;DHT22;1873;49.988;8.674;2022-11-21T08:03:52;5.90;99.90
3715;DHT22;1873;49.988;8.674;2022-11-21T08:06:20;5.90;99.90
3715;DHT22;1873;49.988;8.674;2022-11-21T08:08:51;5.90;99.90
3715;DHT22;1873;49.988;8.674;2022-11-21T08:11:20;6.00;99.90
3715;DHT22;1873;49.988;8.674;2022-11-21T08:13:50;6.00;99.90
3715;DHT22;1873;49.988;8.674;2022-11-21T08:16:18;6.00;99.90
3715;DHT22;1873;49.988;8.674;2022-11-21T08:18:48;6.10;99.90
3715;DHT22;1873;49.988;8.674;2022-11-21T08:21:18;6.10;99.90
3715;DHT22;1873;49.988;8.674;2022-11-21T08:23:47;6.10;99.90
3715;DHT22;1873;49.988;8.674;2022-11-21T08:26:16;6.10;99.90
3715;DHT22;1873;49.988;8.674;2022-11-21T08:28:44;6.10;99.90
3715;DHT22;1873;49.988;8.674;2022-11-21T08:31:12;6.10;99.90
3715;DHT22;1873;49.988;8.674;2022-11-21T08:33:41;6.10;99.90
3715;DHT22;1873;49.988;8.674;2022-11-21T08:36:09;6.20;99.90
3715;DHT22;1873;49.988;8.674;2022-11-21T08:38:39;6.20;99.90
3715;DHT22;1873;49.988;8.674;2022-11-21T08:41:11;6.20;99.90
3715;DHT22;1873;49.988;8.674;2022-11-21T08:43:56;6.40;99.90
3715;DHT22;1873;49.988;8.674;2022-11-21T08:46:25;6.50;99.90
3715;DHT22;1873;49.988;8.674;2022-11-21T08:48:54;6.60;99.90
3715;DHT22;1873;49.988;8.674;2022-11-21T08:51:24;6.90;99.90
3715;DHT22;1873;49.988;8.674;2022-11-21T08:53:53;7.00;99.90
3715;DHT22;1873;49.988;8.674;2022-11-21T08:56:22;7.00;99.90
3715;DHT22;1873;49.988;8.674;2022-11-21T08:58:50;7.00;99.90
3715;DHT22;1873;49.988;8.674;2022-11-21T09:01:19;7.00;99.90
3715;DHT22;1873;49.988;8.674;2022-11-21T09:03:47;7.00;99.90
3715;DHT22;1873;49.988;8.674;2022-11-21T09:06:16;7.10;99.90
3715;DHT22;1873;49.988;8.674;2022-11-21T09:08:45;7.00;99.90
3715;DHT22;1873;49.988;8.674;2022-11-21T09:11:14;7.00;99.90
3715;DHT22;1873;49.988;8.674;2022-11-21T09:13:43;7.00;99.90
3715;DHT22;1873;49.988;8.674;2022-11-21T09:16:31;6.90;99.90
3715;DHT22;1873;49.988;8.674;2022-11-21T09:19:17;6.90;99.90
3715;DHT22;1873;49.988;8.674;2022-11-21T09:21:48;6.90;99.90
3715;DHT22;1873;49.988;8.674;2022-11-21T09:24:17;7.00;99.90
3715;DHT22;1873;49.988;8.674;2022-11-21T09:26:47;7.10;99.90
3715;DHT22;1873;49.988;8.674;2022-11-21T09:29:15;7.10;99.90
3715;DHT22;1873;49.988;8.674;2022-11-21T09:31:44;7.10;99.90
3715;DHT22;1873;49.988;8.674;2022-11-21T09:34:14;7.00;99.90
3715;DHT22;1873;49.988;8.674;2022-11-21T09:36:42;7.10;99.90
3715;DHT22;1873;49.988;8.674;2022-11-21T09:39:12;7.20;99.90
3715;DHT22;1873;49.988;8.674;2022-11-21T09:41:48;7.20;99.90
3715;DHT22;1873;49.988;8.674;2022-11-21T09:44:43;7.20;99.90
3715;DHT22;1873;49.988;8.674;2022-11-21T09:47:21;7.20;99.90
3715;DHT22;1873;49.988;8.674;2022-11-21T09:49:54;7.30;99.90
3715;DHT22;1873;49.988;8.674;2022-11-21T09:52:29;7.30;99.90
3715;DHT22;1873;49.988;8.674;2022-11-21T09:55:02;7.40;99.90
3715;DHT22;1873;49.988;8.674;2022-11-21T09:57:34;7.40;99.90
3715;DHT22;1873;49.988;8.674;2022-11-21T10:00:11;7.40;99.90
3715;DHT22;1873;49.988;8.674;2022-11-21T10:02:43;7.50;99.90
3715;DHT22;1873;49.988;8.674;2022-11-21T10:05:13;7.50;99.90
3715;DHT22;1873;49.988;8.674;2022-11-21T10:07:43;7.60;99.90
3715;DHT22;1873;49.988;8.674;2022-11-21T10:10:26;7.50;99.90
3715;DHT22;1873;49.988;8.674;2022-11-21T10:13:26;7.50;99.90
3715;DHT22;1873;49.988;8.674;2022-11-21T10:16:03;7.50;99.90
3715;DHT22;1873;49.988;8.674;2022-11-21T10:18:50;7.50;99.90
3715;DHT22;1873;49.988;8.674;2022-11-21T10:21:36;7.50;99.90
3715;DHT22;1873;49.988;8.674;2022-11-21T10:24:27;7.50;99.90
3715;DHT22;1873;49.988;8.674;2022-11-21T10:27:01;7.60;99.90
3715;DHT22;1873;49.988;8.674;2022-11-21T10:29:35;7.90;99.90
3715;DHT22;1873;49.988;8.674;2022-11-21T10:32:15;8.10;99.90
3715;DHT22;1873;49.988;8.674;2022-11-21T10:34:48;8.10;99.90
3715;DHT22;1873;49.988;8.674;2022-11-21T10:37:28;8.10;99.90
3715;DHT22;1873;49.988;8.674;2022-11-21T10:40:12;7.90;99.90
3715;DHT22;1873;49.988;8.674;2022-11-21T10:42:50;7.80;99.90
3715;DHT22;1873;49.988;8.674;2022-11-21T10:45:21;7.90;99.90
3715;DHT22;1873;49.988;8.674;2022-11-21T10:47:50;7.90;99.90
3715;DHT22;1873;49.988;8.674;2022-11-21T10:50:30;7.90;99.90
3715;DHT22;1873;49.988;8.674;2022-11-21T10:53:05;7.90;99.90
3715;DHT22;1873;49.988;8.674;2022-11-21T10:55:59;7.90;99.90
3715;DHT22;1873;49.988;8.674;2022-11-21T10:58:43;8.00;99.90
3715;DHT22;1873;49.988;8.674;2022-11-21T11:01:25;8.10;99.90
3715;DHT22;1873;49.988;8.674;2022-11-21T11:04:05;8.10;99.90
3715;DHT22;1873;49.988;8.674;2022-11-21T11:06:53;8.20;99.90
3715;DHT22;1873;49.988;8.674;2022-11-21T11:09:28;8.20;99.90
3715;DHT22;1873;49.988;8.674;2022-11-21T11:15:24;8.40;99.90
3715;DHT22;1873;49.988;8.674;2022-11-21T11:17:56;8.40;99.90
3715;DHT22;1873;49.988;8.674;2022-11-21T11:20:36;8.60;99.90
3715;DHT22;1873;49.988;8.674;2022-11-21T11:23:16;8.80;99.90
3715;DHT22;1873;49.988;8.674;2022-11-21T11:25:46;8.90;99.90
3715;DHT22;1873;49.988;8.674;2022-11-21T11:28:18;9.00;99.90
3715;DHT22;1873;49.988;8.674;2022-11-21T11:30:47;8.90;99.90
3715;DHT22;1873;49.988;8.674;2022-11-21T11:33:32;8.80;99.90
3715;DHT22;1873;49.988;8.674;2022-11-21T11:36:12;8.70;99.90
3715;DHT22;1873;49.988;8.674;2022-11-21T11:38:47;8.70;99.90
3715;DHT22;1873;49.988;8.674;2022-11-21T11:44:28;8.50;99.90
3715;DHT22;1873;49.988;8.674;2022-11-21T11:47:20;8.50;99.90
3715;DHT22;1873;49.988;8.674;2022-11-21T11:50:03;8.70;99.90
3715;DHT22;1873;49.988;8.674;2022-11-21T11:52:47;8.80;99.90
3715;DHT22;1873;49.988;8.674;2022-11-21T11:55:22;9.00;99.90
3715;DHT22;1873;49.988;8.674;2022-11-21T11:57:55;9.10;99.90
3715;DHT22;1873;49.988;8.674;2022-11-21T12:00:31;9.00;99.90
3715;DHT22;1873;49.988;8.674;2022-11-21T12:03:10;8.90;99.90
3715;DHT22;1873;49.988;8.674;2022-11-21T12:05:52;8.80;99.90
3715;DHT22;1873;49.988;8.674;2022-11-21T12:08:28;8.80;99.90
3715;DHT22;1873;49.988;8.674;2022-11-21T12:11:15;8.70;99.90
3715;DHT22;1873;49.988;8.674;2022-11-21T12:14:13;8.60;99.90
3715;DHT22;1873;49.988;8.674;2022-11-21T12:17:05;8.50;99.90
3715;DHT22;1873;49.988;8.674;2022-11-21T12:19:35;8.50;99.90
3715;DHT22;1873;49.988;8.674;2022-11-21T12:22:08;8.50;99.90
3715;DHT22;1873;49.988;8.674;2022-11-21T12:24:37;8.70;99.90
3715;DHT22;1873;49.988;8.674;2022-11-21T12:27:19;8.80;99.90
3715;DHT22;1873;49.988;8.674;2022-11-21T12:32:54;8.70;99.90
3715;DHT22;1873;49.988;8.674;2022-11-21T12:35:43;8.60;99.90
3715;DHT22;1873;49.988;8.674;2022-11-21T12:38:26;8.60;99.90
3715;DHT22;1873;49.988;8.674;2022-11-21T12:41:04;8.50;99.90
3715;DHT22;1873;49.988;8.674;2022-11-21T12:43:59;8.40;99.90
3715;DHT22;1873;49.988;8.674;2022-11-21T12:46:38;8.40;99.90
3715;DHT22;1873;49.988;8.674;2022-11-21T12:49:16;8.40;99.90
3715;DHT22;1873;49.988;8.674;2022-11-21T12:52:12;8.40;99.90
3715;DHT22;1873;49.988;8.674;2022-11-21T12:55:09;8.30;99.90
3715;DHT22;1873;49.988;8.674;2022-11-21T12:57:49;8.30;99.90
3715;DHT22;1873;49.988;8.674;2022-11-21T13:00:28;8.30;99.90
3715;DHT22;1873;49.988;8.674;2022-11-21T13:03:20;8.30;99.90
3715;DHT22;1873;49.988;8.674;2022-11-21T13:05:51;8.40;99.90
3715;DHT22;1873;49.988;8.674;2022-11-21T13:08:22;8.50;99.90
3715;DHT22;1873;49.988;8.674;2022-11-21T13:10:57;8.60;99.90
3715;DHT22;1873;49.988;8.674;2022-11-21T13:13:49;8.60;99.90
3715;DHT22;1873;49.988;8.674;2022-11-21T13:16:24;8.70;99.90
3715;DHT22;1873;49.988;8.674;2022-11-21T13:19:13;8.60;99.90
3715;DHT22;1873;49.988;8.674;2022-11-21T13:21:44;8.60;99.90
3715;DHT22;1873;49.988;8.674;2022-11-21T13:27:26;8.50;99.90
3715;DHT22;1873;49.988;8.674;2022-11-21T13:30:17;8.40;99.90
3715;DHT22;1873;49.988;8.674;2022-11-21T13:32:46;8.30;99.90
3715;DHT22;1873;49.988;8.674;2022-11-21T13:38:26;8.20;99.90
3715;DHT22;1873;49.988;8.674;2022-11-21T13:40:54;8.20;99.90
3715;DHT22;1873;49.988;8.674;2022-11-21T13:43:42;8.20;99.90
3715;DHT22;1873;49.988;8.674;2022-11-21T13:49:22;8.00;99.90
3715;DHT22;1873;49.988;8.674;2022-11-21T13:51:53;8.00;99.90
3715;DHT22;1873;49.988;8.674;2022-11-21T13:58:14;7.90;99.90
3715;DHT22;1873;49.988;8.674;2022-11-21T14:01:08;7.90;99.90
3715;DHT22;1873;49.988;8.674;2022-11-21T14:03:57;7.90;99.90
3715;DHT22;1873;49.988;8.674;2022-11-21T14:06:35;7.90;99.90
3715;DHT22;1873;49.988;8.674;2022-11-21T14:09:23;7.90;99.90
3715;DHT22;1873;49.988;8.674;2022-11-21T14:11:58;7.90;99.90
3715;DHT22;1873;49.988;8.674;2022-11-21T14:14:32;7.90;99.90
3715;DHT22;1873;49.988;8.674;2022-11-21T14:17:13;7.90;99.90
3715;DHT22;1873;49.988;8.674;2022-11-21T14:19:44;7.90;99.90
3715;DHT22;1873;49.988;8.674;2022-11-21T14:22:23;7.90;99.90
3715;DHT22;1873;49.988;8.674;2022-11-21T14:25:05;8.00;99.90
3715;DHT22;1873;49.988;8.674;2022-11-21T14:27:38;8.10;99.90
3715;DHT22;1873;49.988;8.674;2022-11-21T14:30:26;8.10;99.90
3715;DHT22;1873;49.988;8.674;2022-11-21T14:33:29;8.10;99.90
3715;DHT22;1873;49.988;8.674;2022-11-21T14:36:04;8.10;99.90
3715;DHT22;1873;49.988;8.674;2022-11-21T14:38:39;8.10;99.90
3715;DHT22;1873;49.988;8.674;2022-11-21T14:41:22;8.10;99.90
3715;DHT22;1873;49.988;8.674;2022-11-21T14:44:00;8.10;99.90
3715;DHT22;1873;49.988;8.674;2022-11-21T14:46:30;8.10;99.90
3715;DHT22;1873;49.988;8.674;2022-11-21T14:49:23;8.10;99.90
3715;DHT22;1873;49.988;8.674;2022-11-21T14:51:58;8.10;99.90
3715;DHT22;1873;49.988;8.674;2022-11-21T14:54:30;8.00;99.90
3715;DHT22;1873;49.988;8.674;2022-11-21T14:57:01;7.90;99.90
3715;DHT22;1873;49.988;8.674;2022-11-21T14:59:36;7.90;99.90
3715;DHT22;1873;49.988;8.674;2022-11-21T15:02:11;7.80;99.90
3715;DHT22;1873;49.988;8.674;2022-11-21T15:04:42;7.80;99.90
3715;DHT22;1873;49.988;8.674;2022-11-21T15:07:20;7.80;99.90
3715;DHT22;1873;49.988;8.674;2022-11-21T15:09:57;7.80;99.90
3715;DHT22;1873;49.988;8.674;2022-11-21T15:12:50;7.70;99.90
3715;DHT22;1873;49.988;8.674;2022-11-21T15:15:27;7.70;99.90
3715;DHT22;1873;49.988;8.674;2022-11-21T15:17:58;7.60;99.90
3715;DHT22;1873;49.988;8.674;2022-11-21T15:20:50;7.60;99.90
3715;DHT22;1873;49.988;8.674;2022-11-21T15:23:29;7.50;99.90
3715;DHT22;1873;49.988;8.674;2022-11-21T15:25:58;7.40;99.90
3715;DHT22;1873;49.988;8.674;2022-11-21T15:28:28;7.40;99.90
3715;DHT22;1873;49.988;8.674;2022-11-21T15:31:16;7.30;99.90
3715;DHT22;1873;49.988;8.674;2022-11-21T15:33:58;7.30;99.90
3715;DHT22;1873;49.988;8.674;2022-11-21T15:37:03;7.20;99.90
3715;DHT22;1873;49.988;8.674;2022-11-21T15:39:34;7.20;99.90
3715;DHT22;1873;49.988;8.674;2022-11-21T15:42:35;7.10;99.90
3715;DHT22;1873;49.988;8.674;2022-11-21T15:45:21;7.10;99.90
3715;DHT22;1873;49.988;8.674;2022-11-21T15:47:51;7.00;99.90
3715;DHT22;1873;49.988;8.674;2022-11-21T15:50:22;7.00;99.90
3715;DHT22;1873;49.988;8.674;2022-11-21T15:52:53;7.00;99.90
3715;DHT22;1873;49.988;8.674;2022-11-21T15:55:25;7.00;99.90
3715;DHT22;1873;49.988;8.674;2022-11-21T15:57:54;7.00;99.90
3715;DHT22;1873;49.988;8.674;2022-11-21T16:00:23;7.00;99.90
3715;DHT22;1873;49.988;8.674;2022-11-21T16:02:51;7.00;99.90
3715;DHT22;1873;49.988;8.674;2022-11-21T16:05:20;7.00;99.90
3715;DHT22;1873;49.988;8.674;2022-11-21T16:07:48;6.90;99.90
3715;DHT22;1873;49.988;8.674;2022-11-21T16:10:18;6.90;99.90
3715;DHT22;1873;49.988;8.674;2022-11-21T16:12:53;6.90;99.90
3715;DHT22;1873;49.988;8.674;2022-11-21T16:15:22;6.90;99.90
3715;DHT22;1873;49.988;8.674;2022-11-21T16:17:50;6.90;99.90
3715;DHT22;1873;49.988;8.674;2022-11-21T16:20:20;6.80;99.90
3715;DHT22;1873;49.988;8.674;2022-11-21T16:22:48;6.80;99.90
3715;DHT22;1873;49.988;8.674;2022-11-21T16:25:18;6.70;99.90
3715;DHT22;1873;49.988;8.674;2022-11-21T16:27:46;6.70;99.90
3715;DHT22;1873;49.988;8.674;2022-11-21T16:30:15;6.70;99.90
3715;DHT22;1873;49.988;8.674;2022-11-21T16:32:44;6.70;99.90
3715;DHT22;1873;49.988;8.674;2022-11-21T16:35:15;6.70;99.90
3715;DHT22;1873;49.988;8.674;2022-11-21T16:37:43;6.70;99.90
3715;DHT22;1873;49.988;8.674;2022-11-21T16:40:13;6.70;99.90
3715;DHT22;1873;49.988;8.674;2022-11-21T16:42:43;6.70;99.90
3715;DHT22;1873;49.988;8.674;2022-11-21T16:45:12;6.60;99.90
3715;DHT22;1873;49.988;8.674;2022-11-21T16:47:41;6.60;99.90
3715;DHT22;1873;49.988;8.674;2022-11-21T16:50:14;6.60;99.90
3715;DHT22;1873;49.988;8.674;2022-11-21T16:52:42;6.50;99.90
3715;DHT22;1873;49.988;8.674;2022-11-21T16:55:10;6.50;99.90
3715;DHT22;1873;49.988;8.674;2022-11-21T16:57:39;6.50;99.90
3715;DHT22;1873;49.988;8.674;2022-11-21T17:00:18;6.50;99.90
3715;DHT22;1873;49.988;8.674;2022-11-21T17:02:46;6.40;99.90
3715;DHT22;1873;49.988;8.674;2022-11-21T17:05:15;6.40;99.90
3715;DHT22;1873;49.988;8.674;2022-11-21T17:07:44;6.40;99.90
3715;DHT22;1873;49.988;8.674;2022-11-21T17:10:13;6.40;99.90
3715;DHT22;1873;49.988;8.674;2022-11-21T17:12:42;6.40;99.90
3715;DHT22;1873;49.988;8.674;2022-11-21T17:15:14;6.30;99.90
3715;DHT22;1873;49.988;8.674;2022-11-21T17:17:42;6.30;99.90